This is the latest recevied weather packets stored in our database for station/object OM3WYM-13. If no packets are shown the sender has not sent any weather packets the latest 10 day(s).
| Time | Temp. | Humidity | Pressure | Rain* | Wind** | Luminosity | Snow |
|---|---|---|---|---|---|---|---|
| 1777740608 | 21.67° C | 24% | 1019.7 hPa | - | - | - | - |
| 1777740009 | 21.67° C | 24% | 1019.7 hPa | - | - | - | - |
| 1777739409 | 22.22° C | 23% | 1019.6 hPa | - | - | - | - |
| 1777738808 | 22.78° C | 23% | 1019.6 hPa | - | - | - | - |
| 1777738208 | 22.78° C | 23% | 1019.7 hPa | - | - | - | - |
| 1777737609 | 23.89° C | 22% | 1019.6 hPa | - | - | - | - |
| 1777737009 | 23.33° C | 23% | 1019.7 hPa | - | - | - | - |
| 1777736409 | 24.44° C | 22% | 1019.7 hPa | - | - | - | - |
| 1777735810 | 23.89° C | 22% | 1019.8 hPa | - | - | - | - |
| 1777735208 | 24.44° C | 22% | 1019.9 hPa | - | - | - | - |
| 1777734609 | 24.44° C | 22% | 1020 hPa | - | - | - | - |
| 1777734008 | 24.44° C | 21% | 1020 hPa | - | - | - | - |
| 1777733408 | 25° C | 21% | 1020 hPa | - | - | - | - |
| 1777732809 | 24.44° C | 23% | 1020 hPa | - | - | - | - |
| 1777732209 | 24.44° C | 22% | 1020.2 hPa | - | - | - | - |
| 1777731609 | 25° C | 22% | 1020.1 hPa | - | - | - | - |
| 1777731008 | 24.44° C | 22% | 1020.2 hPa | - | - | - | - |
| 1777730409 | 25° C | 22% | 1020.2 hPa | - | - | - | - |
| 1777729809 | 25.56° C | 21% | 1020.3 hPa | - | - | - | - |
| 1777729209 | 25° C | 23% | 1020.4 hPa | - | - | - | - |
| 1777728609 | 24.44° C | 23% | 1020.4 hPa | - | - | - | - |
| 1777728009 | 24.44° C | 23% | 1020.6 hPa | - | - | - | - |
| 1777727409 | 23.33° C | 24% | 1020.8 hPa | - | - | - | - |
| 1777726809 | 23.33° C | 24% | 1020.8 hPa | - | - | - | - |
| 1777726209 | 23.33° C | 25% | 1021 hPa | - | - | - | - |
* Rain since midnight (hover to see other rain measurements)
** Current wind speed in m/s (hover to see current wind gust speed)